createdAt,value
2024-03-09T00:01:38.472Z,60.10
2024-03-09T00:04:05.812Z,62.65
2024-03-09T00:06:33.889Z,56.47
2024-03-09T00:09:01.023Z,55.17
2024-03-09T00:11:28.284Z,52.63
2024-03-09T00:13:56.076Z,57.72
2024-03-09T00:16:22.797Z,54.65
2024-03-09T00:18:49.595Z,51.88
2024-03-09T00:21:16.283Z,50.88
2024-03-09T00:23:43.579Z,60.55
2024-03-09T00:26:11.400Z,45.70
2024-03-09T00:28:42.200Z,54.08
2024-03-09T00:31:09.453Z,64.43
2024-03-09T00:33:39.403Z,51.08
2024-03-09T00:38:35.630Z,45.30
2024-03-09T00:41:03.029Z,48.22
2024-03-09T00:43:29.720Z,51.42
2024-03-09T00:45:56.452Z,53.85
2024-03-09T00:48:23.642Z,54.45
2024-03-09T00:50:50.396Z,52.08
2024-03-09T00:53:18.277Z,52.45
2024-03-09T00:55:45.722Z,57.28
2024-03-09T00:58:14.242Z,55.20
2024-03-09T01:00:41.180Z,56.45
2024-03-09T01:03:07.815Z,55.85
2024-03-09T01:05:34.510Z,53.85
2024-03-09T01:08:01.962Z,46.28
2024-03-09T01:10:28.681Z,57.13
2024-03-09T01:12:56.769Z,50.22
2024-03-09T01:15:23.573Z,57.63
2024-03-09T01:17:50.473Z,49.25
2024-03-09T01:20:18.366Z,52.90
2024-03-09T01:22:46.398Z,49.33
2024-03-09T01:25:14.019Z,53.15
2024-03-09T01:27:41.147Z,49.17
2024-03-09T01:30:10.885Z,51.10
2024-03-09T01:32:41.648Z,57.50
2024-03-09T01:35:10.482Z,51.33
2024-03-09T01:37:37.584Z,51.58
2024-03-09T01:40:05.835Z,56.55
2024-03-09T01:42:32.479Z,49.10
2024-03-09T01:44:59.227Z,54.25
2024-03-09T01:47:27.418Z,50.63
2024-03-09T01:49:55.166Z,53.53
2024-03-09T01:52:25.054Z,47.83
2024-03-09T01:54:55.180Z,54.35
2024-03-09T01:57:22.119Z,53.92
2024-03-09T01:59:55.906Z,54.13
2024-03-09T02:02:26.289Z,43.80
2024-03-09T02:04:53.595Z,50.42
2024-03-09T02:07:20.395Z,49.00
2024-03-09T02:09:49.511Z,47.40
2024-03-09T02:12:18.574Z,51.55
2024-03-09T02:14:46.396Z,48.78
2024-03-09T02:17:14.011Z,54.88
2024-03-09T02:19:41.835Z,53.97
2024-03-09T02:22:14.272Z,48.90
2024-03-09T02:24:42.865Z,56.17
2024-03-09T02:27:10.729Z,48.47
2024-03-09T02:29:38.494Z,58.72
2024-03-09T02:32:05.762Z,62.72
2024-03-09T02:34:33.261Z,68.80
2024-03-09T02:37:00.305Z,79.38
2024-03-09T02:39:29.627Z,76.05
2024-03-09T02:41:59.631Z,74.47
2024-03-09T02:44:29.704Z,71.50
2024-03-09T02:46:56.841Z,78.28
2024-03-09T02:49:25.779Z,78.63
2024-03-09T02:51:54.755Z,69.35
2024-03-09T02:54:21.786Z,73.38
2024-03-09T02:56:50.728Z,77.85
2024-03-09T02:59:17.675Z,71.93
2024-03-09T03:01:45.173Z,71.35
2024-03-09T03:04:13.217Z,72.82
2024-03-09T03:06:40.106Z,68.47
2024-03-09T03:09:12.847Z,67.80
2024-03-09T03:11:42.487Z,74.45
2024-03-09T03:14:10.852Z,77.85
2024-03-09T03:16:38.020Z,69.40
2024-03-09T03:19:11.063Z,64.43
2024-03-09T03:21:42.311Z,63.65
2024-03-09T03:24:10.579Z,65.00
2024-03-09T03:26:38.043Z,67.97
2024-03-09T03:29:05.059Z,63.08
2024-03-09T03:31:31.984Z,66.53
2024-03-09T03:33:59.031Z,60.25
2024-03-09T03:36:26.142Z,63.50
2024-03-09T03:38:52.907Z,70.55
2024-03-09T03:41:23.749Z,83.25
2024-03-09T03:43:51.359Z,84.82
2024-03-09T03:46:18.422Z,86.25
2024-03-09T03:48:48.437Z,92.57
2024-03-09T03:51:16.966Z,84.72
2024-03-09T03:53:45.736Z,95.15
2024-03-09T03:56:16.031Z,94.20
2024-03-09T04:01:12.602Z,76.43
2024-03-09T04:03:39.688Z,75.10
2024-03-09T04:06:07.584Z,79.30
2024-03-09T04:08:34.717Z,75.60
2024-03-09T04:11:03.493Z,85.75
2024-03-09T04:13:30.245Z,87.30
2024-03-09T04:15:57.305Z,79.97
2024-03-09T04:18:24.418Z,76.32
2024-03-09T04:20:51.353Z,73.22
2024-03-09T04:23:18.725Z,67.82
2024-03-09T04:25:57.522Z,62.80
2024-03-09T04:28:29.214Z,58.72
2024-03-09T04:30:59.907Z,63.78
2024-03-09T04:33:27.608Z,67.15
2024-03-09T04:35:54.609Z,74.57
2024-03-09T04:38:21.779Z,81.85
2024-03-09T04:40:51.059Z,83.57
2024-03-09T04:43:19.064Z,77.43
2024-03-09T04:45:47.052Z,73.85
2024-03-09T04:48:15.473Z,71.35
2024-03-09T04:50:48.539Z,69.70
2024-03-09T04:53:17.087Z,75.05
2024-03-09T04:55:52.957Z,72.97
2024-03-09T04:58:20.773Z,69.80
2024-03-09T05:00:47.811Z,68.68
2024-03-09T05:03:15.898Z,72.50
2024-03-09T05:05:44.525Z,65.28
2024-03-09T05:08:12.056Z,65.43
2024-03-09T05:10:39.011Z,64.43
2024-03-09T05:13:08.084Z,85.88
2024-03-09T05:15:35.608Z,89.93
2024-03-09T05:18:04.950Z,85.93
2024-03-09T05:20:31.851Z,70.32
2024-03-09T05:23:00.424Z,74.35
2024-03-09T05:25:28.043Z,71.13
2024-03-09T05:27:55.747Z,79.45
2024-03-09T05:30:26.896Z,80.35
2024-03-09T05:32:58.946Z,91.25
2024-03-09T05:35:30.861Z,82.22
2024-03-09T05:38:01.936Z,90.43
2024-03-09T05:40:31.200Z,89.72
2024-03-09T05:43:01.955Z,97.03
2024-03-09T05:45:29.291Z,93.05
2024-03-09T05:47:57.582Z,104.25
2024-03-09T05:50:32.331Z,104.18
2024-03-09T05:53:03.346Z,94.13
2024-03-09T05:55:30.516Z,99.20
2024-03-09T05:57:58.455Z,101.85
2024-03-09T06:00:31.359Z,94.22
2024-03-09T06:03:09.183Z,94.55
2024-03-09T06:05:36.345Z,90.05
2024-03-09T06:08:04.213Z,86.47
2024-03-09T06:10:31.459Z,80.75
2024-03-09T06:12:58.225Z,77.95
2024-03-09T06:15:26.536Z,78.90
2024-03-09T06:17:57.377Z,80.78
2024-03-09T06:20:33.281Z,78.50
2024-03-09T06:23:00.077Z,75.43
2024-03-09T06:25:27.716Z,75.13
2024-03-09T06:28:03.798Z,84.75
2024-03-09T06:30:32.505Z,70.93
2024-03-09T06:35:29.780Z,73.25
2024-03-09T06:38:02.214Z,75.60
2024-03-09T06:40:33.911Z,73.82
2024-03-09T06:43:06.660Z,63.45
2024-03-09T06:45:35.266Z,58.70
2024-03-09T06:48:02.187Z,55.63
2024-03-09T06:50:30.454Z,54.10
2024-03-09T06:52:57.428Z,52.50
2024-03-09T06:55:27.784Z,49.38
2024-03-09T06:57:55.508Z,43.55
2024-03-09T07:00:23.313Z,38.05
2024-03-09T07:02:55.000Z,42.33
2024-03-09T07:05:22.240Z,33.63
2024-03-09T07:07:49.713Z,34.92
2024-03-09T07:10:16.470Z,34.47
2024-03-09T07:12:43.352Z,32.05
2024-03-09T07:15:18.031Z,33.50
2024-03-09T07:17:46.299Z,32.58
2024-03-09T07:20:14.866Z,33.42
2024-03-09T07:22:43.254Z,29.75
2024-03-09T07:25:17.086Z,33.22
2024-03-09T07:27:44.798Z,30.90
2024-03-09T07:30:15.625Z,29.00
2024-03-09T07:32:49.798Z,25.23
2024-03-09T07:35:20.759Z,24.27
2024-03-09T07:37:56.668Z,27.98
2024-03-09T07:40:27.588Z,23.92
2024-03-09T07:42:55.029Z,23.20
2024-03-09T07:45:27.909Z,23.58
2024-03-09T07:47:55.380Z,17.50
2024-03-09T07:50:24.387Z,16.30
2024-03-09T07:52:56.878Z,17.90
2024-03-09T07:55:27.058Z,14.80
2024-03-09T07:58:13.253Z,16.75
2024-03-09T08:00:50.043Z,14.50
2024-03-09T08:03:18.328Z,15.13
2024-03-09T08:05:45.221Z,16.98
2024-03-09T08:08:13.894Z,15.30
2024-03-09T08:10:46.783Z,15.80
2024-03-09T08:13:14.861Z,17.58
2024-03-09T08:15:41.871Z,16.02
2024-03-09T08:18:09.077Z,14.88
2024-03-09T08:20:36.279Z,16.33
2024-03-09T08:23:03.102Z,16.73
2024-03-09T08:25:29.988Z,15.75
2024-03-09T08:27:56.887Z,15.07
2024-03-09T08:30:23.700Z,16.45
2024-03-09T08:33:00.773Z,15.32
2024-03-09T08:35:34.243Z,14.40
2024-03-09T08:38:01.206Z,15.02
2024-03-09T08:40:28.286Z,16.15
2024-03-09T08:42:56.087Z,15.95
2024-03-09T08:45:25.039Z,15.68
2024-03-09T08:47:53.422Z,18.88
2024-03-09T08:50:22.882Z,16.60
2024-03-09T08:52:50.984Z,18.48
2024-03-09T08:55:19.952Z,15.23
2024-03-09T08:57:53.063Z,16.33
2024-03-09T09:00:26.704Z,17.10
2024-03-09T09:02:58.372Z,17.02
2024-03-09T09:05:29.638Z,15.90
2024-03-09T09:08:00.383Z,18.02
2024-03-09T09:10:27.521Z,19.50
2024-03-09T09:12:58.640Z,20.52
2024-03-09T09:15:26.558Z,17.65
2024-03-09T09:17:57.343Z,18.88
2024-03-09T09:20:25.582Z,19.42
2024-03-09T09:22:55.552Z,19.25
2024-03-09T09:25:30.842Z,17.80
2024-03-09T09:28:01.090Z,18.95
2024-03-09T09:30:27.944Z,17.75
2024-03-09T09:32:54.725Z,17.48
2024-03-09T09:35:22.120Z,17.33
2024-03-09T09:37:49.146Z,17.27
2024-03-09T09:40:16.978Z,17.23
2024-03-09T09:42:45.002Z,20.90
2024-03-09T09:45:22.951Z,18.05
2024-03-09T09:50:20.541Z,21.67
2024-03-09T09:52:50.337Z,20.92
2024-03-09T09:55:20.777Z,24.98
2024-03-09T09:57:47.758Z,22.23
2024-03-09T10:00:15.756Z,20.48
2024-03-09T10:02:43.104Z,21.65
2024-03-09T10:05:14.400Z,22.57
2024-03-09T10:08:06.196Z,23.23
2024-03-09T10:10:36.846Z,20.67
2024-03-09T10:13:08.174Z,21.25
2024-03-09T10:15:38.085Z,21.10
2024-03-09T10:18:07.000Z,18.95
2024-03-09T10:20:36.226Z,21.40
2024-03-09T10:23:10.292Z,20.63
2024-03-09T10:25:37.599Z,18.90
2024-03-09T10:28:12.200Z,17.77
2024-03-09T10:30:39.964Z,18.42
2024-03-09T10:33:15.833Z,18.95
2024-03-09T10:35:45.744Z,17.17
2024-03-09T10:38:14.850Z,20.05
2024-03-09T10:40:43.076Z,17.60
2024-03-09T10:45:42.650Z,16.42
2024-03-09T10:48:11.397Z,22.17
2024-03-09T10:50:53.086Z,17.38
2024-03-09T10:53:28.728Z,18.08
2024-03-09T10:56:16.622Z,18.50
2024-03-09T10:58:45.908Z,18.65
2024-03-09T11:01:16.993Z,18.30
2024-03-09T11:03:50.453Z,18.50
2024-03-09T11:06:22.662Z,18.10
2024-03-09T11:08:58.135Z,18.85
2024-03-09T11:11:28.089Z,19.45
2024-03-09T11:13:58.196Z,19.45
2024-03-09T11:16:28.263Z,18.20
2024-03-09T11:18:58.653Z,22.10
2024-03-09T11:21:35.767Z,18.30
2024-03-09T11:24:12.892Z,18.83
2024-03-09T11:26:53.642Z,16.85
2024-03-09T11:29:24.586Z,17.70
2024-03-09T11:32:13.358Z,17.63
2024-03-09T11:34:40.516Z,19.83
2024-03-09T11:37:10.128Z,19.40
2024-03-09T11:39:38.024Z,16.30
2024-03-09T11:42:10.357Z,21.55
2024-03-09T11:44:41.265Z,20.35
2024-03-09T11:47:08.743Z,19.13
2024-03-09T11:49:37.180Z,17.20
2024-03-09T11:52:15.626Z,20.60
2024-03-09T11:54:45.272Z,20.67
2024-03-09T11:57:12.060Z,17.65
2024-03-09T11:59:38.690Z,18.45
2024-03-09T12:02:08.790Z,21.70
2024-03-09T12:04:36.221Z,20.23
2024-03-09T12:07:07.624Z,15.15
2024-03-09T12:09:34.865Z,13.02
2024-03-09T12:12:13.950Z,17.17
2024-03-09T12:14:42.850Z,17.75
2024-03-09T12:17:11.605Z,19.00
2024-03-09T12:19:42.126Z,20.40
2024-03-09T12:22:10.682Z,18.83
2024-03-09T12:24:37.646Z,19.05
2024-03-09T12:27:04.643Z,19.50
2024-03-09T12:29:34.364Z,17.95
2024-03-09T12:32:02.806Z,17.55
2024-03-09T12:34:30.249Z,20.83
2024-03-09T12:36:59.276Z,19.95
2024-03-09T12:39:29.031Z,20.35
2024-03-09T12:41:57.535Z,20.27
2024-03-09T12:44:24.488Z,19.38
2024-03-09T12:46:51.519Z,17.75
2024-03-09T12:49:19.752Z,18.13
2024-03-09T12:51:48.010Z,19.55
2024-03-09T12:54:14.967Z,18.05
2024-03-09T12:56:43.264Z,20.58
2024-03-09T12:59:22.381Z,18.85
2024-03-09T13:01:51.280Z,18.65
2024-03-09T13:04:19.501Z,22.88
2024-03-09T13:06:46.239Z,18.30
2024-03-09T13:09:16.729Z,21.20
2024-03-09T13:11:44.830Z,17.90
2024-03-09T13:14:11.910Z,17.80
2024-03-09T13:16:42.188Z,20.15
2024-03-09T13:19:11.709Z,23.90
2024-03-09T13:24:10.142Z,21.60
2024-03-09T13:26:38.345Z,20.48
2024-03-09T13:29:05.332Z,25.65
2024-03-09T13:31:34.419Z,23.38
2024-03-09T13:34:07.153Z,20.35
2024-03-09T13:36:33.913Z,16.45
2024-03-09T13:39:01.813Z,16.92
2024-03-09T13:41:29.158Z,19.67
2024-03-09T13:43:58.106Z,19.08
2024-03-09T13:46:25.449Z,21.63
2024-03-09T13:48:52.263Z,21.40
2024-03-09T13:51:19.123Z,18.50
2024-03-09T13:53:46.786Z,20.80
2024-03-09T13:56:21.109Z,23.58
2024-03-09T13:58:49.258Z,21.13
2024-03-09T14:01:21.193Z,20.58
2024-03-09T14:03:48.981Z,18.33
2024-03-09T14:06:17.129Z,18.25
2024-03-09T14:08:44.315Z,20.95
2024-03-09T14:11:12.765Z,18.52
2024-03-09T14:13:39.856Z,19.65
2024-03-09T14:16:09.659Z,17.40
2024-03-09T14:18:37.873Z,20.27
2024-03-09T14:21:12.557Z,19.23
2024-03-09T14:23:40.037Z,18.33
2024-03-09T14:26:13.182Z,18.70
2024-03-09T14:28:40.850Z,18.83
2024-03-09T14:31:09.989Z,19.00
2024-03-09T14:33:37.290Z,18.23
2024-03-09T14:36:08.089Z,17.58
2024-03-09T14:38:39.560Z,21.15
2024-03-09T14:41:15.275Z,18.45
2024-03-09T14:43:43.361Z,19.20
2024-03-09T14:46:12.869Z,18.83
2024-03-09T14:48:40.790Z,18.90
2024-03-09T14:51:12.338Z,20.00
2024-03-09T14:53:40.746Z,18.83
2024-03-09T14:56:11.424Z,17.20
2024-03-09T14:58:42.390Z,23.98
2024-03-09T15:01:14.038Z,17.83
2024-03-09T15:03:41.466Z,17.42
2024-03-09T15:06:11.838Z,20.35
2024-03-09T15:08:40.609Z,20.88
2024-03-09T15:11:16.115Z,22.50
2024-03-09T15:13:53.365Z,21.63
2024-03-09T15:16:25.858Z,23.52
2024-03-09T15:18:55.432Z,22.15
2024-03-09T15:21:24.287Z,19.30
2024-03-09T15:23:53.073Z,20.85
2024-03-09T15:26:29.938Z,18.48
2024-03-09T15:28:58.190Z,19.58
2024-03-09T15:31:25.385Z,17.98
2024-03-09T15:33:54.508Z,17.52
2024-03-09T15:36:21.857Z,17.27
2024-03-09T15:38:49.448Z,17.58
2024-03-09T15:41:17.152Z,19.92
2024-03-09T15:43:45.073Z,24.25
2024-03-09T15:46:12.898Z,19.90
2024-03-09T15:48:39.655Z,28.40
2024-03-09T15:51:06.682Z,25.13
2024-03-09T15:53:38.997Z,26.38
2024-03-09T15:56:08.677Z,23.85
2024-03-09T15:58:41.836Z,67.28
2024-03-09T16:01:10.233Z,72.38
2024-03-09T16:03:37.844Z,40.13
2024-03-09T16:06:05.288Z,39.05
2024-03-09T16:08:32.198Z,28.08
2024-03-09T16:10:59.314Z,24.25
2024-03-09T16:13:26.439Z,23.95
2024-03-09T16:15:53.363Z,25.63
2024-03-09T16:18:20.118Z,31.35
2024-03-09T16:20:49.038Z,36.80
2024-03-09T16:23:20.198Z,38.70
2024-03-09T16:25:50.146Z,40.55
2024-03-09T16:28:18.316Z,39.30
2024-03-09T16:30:46.132Z,42.38
2024-03-09T16:33:14.500Z,39.83
2024-03-09T16:35:43.457Z,37.60
2024-03-09T16:38:10.273Z,38.60
2024-03-09T16:40:39.946Z,32.78
2024-03-09T16:43:09.191Z,32.15
2024-03-09T16:45:37.272Z,32.35
2024-03-09T16:48:07.725Z,34.28
2024-03-09T16:50:35.162Z,30.33
2024-03-09T16:53:04.116Z,32.63
2024-03-09T16:55:38.371Z,37.85
2024-03-09T16:58:05.795Z,33.92
2024-03-09T17:00:37.476Z,29.00
2024-03-09T17:03:12.015Z,34.67
2024-03-09T17:05:40.576Z,35.05
2024-03-09T17:08:09.539Z,50.50
2024-03-09T17:10:38.237Z,56.85
2024-03-09T17:13:06.269Z,61.83
2024-03-09T17:15:35.645Z,54.20
2024-03-09T17:18:02.670Z,62.95
2024-03-09T17:20:31.246Z,57.05
2024-03-09T17:23:03.707Z,63.67
2024-03-09T17:25:35.480Z,66.03
2024-03-09T17:28:07.774Z,58.38
2024-03-09T17:30:36.722Z,64.65
2024-03-09T17:33:07.876Z,65.30
2024-03-09T17:35:36.240Z,64.80
2024-03-09T17:38:03.988Z,64.78
2024-03-09T17:40:32.320Z,54.42
2024-03-09T17:42:59.753Z,74.70
2024-03-09T17:45:29.882Z,66.32
2024-03-09T17:47:57.281Z,75.10
2024-03-09T17:50:28.309Z,79.22
2024-03-09T17:53:00.040Z,82.82
2024-03-09T17:55:30.692Z,76.72
2024-03-09T17:58:08.930Z,65.55
2024-03-09T18:00:37.213Z,74.70
2024-03-09T18:03:04.765Z,65.50
2024-03-09T18:05:35.620Z,71.22
2024-03-09T18:08:10.967Z,68.95
2024-03-09T18:10:43.394Z,51.53
2024-03-09T18:13:12.409Z,47.78
2024-03-09T18:15:41.152Z,41.53
2024-03-09T18:18:12.192Z,39.40
2024-03-09T18:20:42.515Z,40.55
2024-03-09T18:23:10.379Z,35.75
2024-03-09T18:25:37.151Z,38.38
2024-03-09T18:28:04.420Z,35.65
2024-03-09T18:30:32.124Z,39.30
2024-03-09T18:32:59.304Z,44.15
2024-03-09T18:35:26.410Z,43.97
2024-03-09T18:38:01.028Z,43.88
2024-03-09T18:40:29.458Z,40.00
2024-03-09T18:42:58.205Z,43.28
2024-03-09T18:45:25.318Z,42.95
2024-03-09T18:47:55.589Z,42.25
2024-03-09T18:50:26.282Z,36.25
2024-03-09T18:52:54.956Z,35.22
2024-03-09T18:55:21.801Z,38.55
2024-03-09T18:57:48.932Z,39.75
2024-03-09T19:00:19.374Z,35.20
2024-03-09T19:02:48.304Z,35.35
2024-03-09T19:05:19.456Z,36.80
2024-03-09T19:07:47.441Z,35.22
2024-03-09T19:10:14.766Z,39.00
2024-03-09T19:12:41.623Z,39.28
2024-03-09T19:15:14.408Z,41.42
2024-03-09T19:17:52.182Z,41.00
2024-03-09T19:20:28.166Z,44.22
2024-03-09T19:23:01.080Z,42.00
2024-03-09T19:25:28.267Z,46.75
2024-03-09T19:27:57.209Z,44.88
2024-03-09T19:30:27.495Z,52.45
2024-03-09T19:32:57.482Z,42.97
2024-03-09T19:35:27.000Z,48.50
2024-03-09T19:40:27.868Z,37.35
2024-03-09T19:42:55.677Z,49.83
2024-03-09T19:45:24.928Z,62.97
2024-03-09T19:47:52.904Z,54.22
2024-03-09T19:50:23.317Z,53.28
2024-03-09T19:52:51.344Z,56.60
2024-03-09T19:55:21.041Z,50.80
2024-03-09T19:57:49.332Z,50.85
2024-03-09T20:00:24.888Z,45.42
2024-03-09T20:02:53.545Z,46.05
2024-03-09T20:05:24.801Z,45.70
2024-03-09T20:08:16.806Z,50.63
2024-03-09T20:10:44.454Z,43.78
2024-03-09T20:13:11.780Z,42.35
2024-03-09T20:15:38.751Z,41.50
2024-03-09T20:18:06.012Z,37.55
2024-03-09T20:20:37.438Z,41.05
2024-03-09T20:23:06.437Z,44.38
2024-03-09T20:25:33.506Z,52.70
2024-03-09T20:28:01.177Z,55.22
2024-03-09T20:30:29.197Z,50.80
2024-03-09T20:32:56.067Z,53.55
2024-03-09T20:35:23.012Z,54.22
2024-03-09T20:37:50.049Z,54.50
2024-03-09T20:40:18.118Z,56.35
2024-03-09T20:42:47.305Z,61.83
2024-03-09T20:45:16.297Z,61.38
2024-03-09T20:47:43.628Z,62.90
2024-03-09T20:50:17.377Z,72.32
2024-03-09T20:52:48.973Z,78.60
2024-03-09T20:55:15.809Z,83.43
2024-03-09T20:57:42.697Z,72.93
2024-03-09T21:00:19.287Z,66.93
2024-03-09T21:02:46.612Z,67.57
2024-03-09T21:05:13.885Z,69.47
2024-03-09T21:07:42.475Z,80.05
2024-03-09T21:10:10.590Z,72.68
2024-03-09T21:12:37.938Z,72.60
2024-03-09T21:15:05.710Z,77.32
2024-03-09T21:17:35.667Z,70.57
2024-03-09T21:20:05.751Z,77.65
2024-03-09T21:22:32.733Z,70.30
2024-03-09T21:24:59.605Z,64.85
2024-03-09T21:27:26.427Z,67.45
2024-03-09T21:29:54.312Z,60.25
2024-03-09T21:32:20.992Z,74.05
2024-03-09T21:34:47.819Z,68.90
2024-03-09T21:37:14.588Z,65.35
2024-03-09T21:39:41.344Z,63.08
2024-03-09T21:42:15.433Z,59.17
2024-03-09T21:44:42.468Z,45.38
2024-03-09T21:47:10.285Z,47.97
2024-03-09T21:49:37.225Z,42.70
2024-03-09T21:52:04.407Z,47.75
2024-03-09T21:54:31.282Z,48.38
2024-03-09T21:56:57.906Z,41.95
2024-03-09T21:59:26.570Z,43.85
2024-03-09T22:01:53.497Z,47.13
2024-03-09T22:04:20.354Z,48.50
2024-03-09T22:06:47.489Z,46.15
2024-03-09T22:09:14.560Z,40.67
2024-03-09T22:11:41.359Z,40.35
2024-03-09T22:14:08.237Z,44.00
2024-03-09T22:16:34.975Z,37.22
2024-03-09T22:19:02.329Z,41.13
2024-03-09T22:21:29.082Z,36.92
2024-03-09T22:23:55.793Z,34.17
2024-03-09T22:26:22.741Z,40.80
2024-03-09T22:28:51.338Z,42.75
2024-03-09T22:31:18.097Z,38.80
2024-03-09T22:33:44.949Z,37.35
2024-03-09T22:36:11.708Z,39.33
2024-03-09T22:38:38.713Z,42.63
2024-03-09T22:41:05.557Z,37.17
2024-03-09T22:43:32.281Z,33.10
2024-03-09T22:45:58.961Z,38.90
2024-03-09T22:48:31.501Z,42.35
2024-03-09T22:50:59.055Z,41.05
2024-03-09T22:53:26.107Z,53.22
2024-03-09T22:55:53.812Z,49.05
2024-03-09T22:58:20.551Z,51.38
2024-03-09T23:01:06.833Z,46.83
2024-03-09T23:03:33.856Z,48.17
2024-03-09T23:06:00.662Z,46.67
2024-03-09T23:08:28.798Z,36.60
2024-03-09T23:10:56.080Z,48.55
2024-03-09T23:13:23.272Z,32.38
2024-03-09T23:15:50.099Z,36.78
2024-03-09T23:18:19.016Z,42.22
2024-03-09T23:20:46.052Z,32.05
2024-03-09T23:23:13.528Z,34.17
2024-03-09T23:25:40.373Z,29.75
2024-03-09T23:28:10.419Z,34.92
2024-03-09T23:30:38.026Z,33.92
2024-03-09T23:33:06.086Z,32.97
2024-03-09T23:35:33.320Z,35.47
2024-03-09T23:38:00.049Z,40.10
2024-03-09T23:40:26.974Z,40.45
2024-03-09T23:42:56.214Z,37.55
2024-03-09T23:45:23.419Z,36.15
2024-03-09T23:47:51.549Z,32.67
2024-03-09T23:50:21.265Z,39.97
2024-03-09T23:52:48.967Z,37.10
2024-03-09T23:55:16.243Z,38.67
2024-03-09T23:57:43.178Z,34.15
